CFY6 weather

Turner Valley Bar N Ranch Airport
Turner Valley Bar N Ranch, Alberta, Canada

Public forecast

Using degrees Celsius for public forecast. Weather courtesy of forecast.io.

Closest aviation weather report (METAR) to Turner Valley Bar N Ranch Airport

Closest report is Calgary / Springbank Airport, 27.0 nm (49.9 km) N. Retrieved 2019/12/07 06:00 UTC (22 minutes ago):

CYBW 070600Z AUTO 32004KT 270V350 9SM FEW200 BKN240 M08/M11 A2963 RMK SLP106

Closest aviation forecast (TAF) to Turner Valley Bar N Ranch Airport

Forecast is more than 6 hours old.

Closest forecast is Calgary / Springbank Airport, 27.0 nm (49.9 km) N. Retrieved 2019-12-07 00:00 UTC (6 hours ago):

TAF CYBW 062338Z 0700/0705 VRB03KT P6SM SCT090 SCT220 BECMG 0700/0702 28005KT RMK FCST BASED ON AUTO OBS NXT FCST WILL BE ISSUED AT 071245Z